Pagrindinis puslapis
METAR-TAF:

METAR-TAF

Oro uostai :

Mora–Siljan

Mora, Švedija

platuma: 60-57-31N, ilguma: 14-30-40E, Aukštis: 193 m

Dabartinis oras

Ataskaita buvo paskelbta 13 minutes, ne 10:50 UTC
Vėjas 8 kt iš Šiaurės Vakarų
Temperatūra 0°C
Drėgmė 93%
Slėgis 981 hPa
Matomumas 10 km arba daugiau

METAR: ESKM 091050Z AUTO 32008KT 9999 BKN027/// OVC044/// 00/M01 Q0981

Laikas: 12:03 (11:03 UTC)


TAF: trūkstamas

Orai ataskaitas ir orų prognozės (METAR, TAF).

turimą stotys yra geltonos ir raudonos taškus žemėlapyje.

Perkelti pele per norėdami pamatyti stoties vardą.

Tada spustelėkite, norėdami matyti oro stebėjimo ir prognozės.

Norėdami pakeisti žemėlapį: spustelėkite ant žalios mygtukų su juodo kryžiaus žemyn,; žalią mygtuką su brūkšneliu, jei norite nutolinti; arba žalių rodyklių gretimoms žemėlapius.


METAR-TAF: